aviador You're here:

UTAA Decoded Metar

ASHKHABAD in RUSSIA
Report Time2017-08-18 14:00:00
UTC Time2017-08-18 14:24:09
Flight Rules vfr VFR
Wind090° at 07 kt
W.Decomp.*RWY 11: 6.4 kt HW 2.8 kt LCW
RWY 12: 5.8 kt HW 3.9 kt LCW
W.Rank090° ranks 7
Current wind is below 090° avg. (7.6)
Visibility9999 m
Phenomena:N/A
Clouds:N/A
Expected CloudBase > 13,600 ft AGL from Temp-Dew spread
CeilingNone
Temp34°C (ISA +20)
Dew Point00°C (11% RH)
Heat Index31.5°C
AAT29.4°C
QNH1009 hPa
Density Alt3,225 ft
Elevation689 ft
Report Wrong Elevation
Raw Report
METAR UTAA 181400Z 09007KT 9999 NSC 34/M00 Q1009 NOSIG=

Extra information for UTAA:More info

Metar Taf Metar & Taf Last 4 Metars F.Rules Stats Wind Profile Meteogram Temp Stats Airport Information Weather charts Add Link Nearby VenuesMetar ALERT Operation Metar Decoded Social comments